Time;durP1;ratioP1;P1;durP2;ratioP2;P2;SDS_P1;SDS_P2;PMS_P1;PMS_P2;Temp;Humidity;BMP_temperature;BMP_pressure;BME280_temperature;BME280_humidity;BME280_pressure;Samples;Min_cycle;Max_cycle;Signal;HPM_P1;HPM_P2
2023/07/16 00:00:31;;;;;;;;;;;;;;;23.92;54.01;97619.97;2619165;28;19928;-86
2023/07/16 00:02:07;;;;;;;;;;;;;;;23.94;54.46;97623.34;2619136;28;19924;-86
2023/07/16 00:03:22;;;;;;;;;;;;;;;23.74;54.94;97626.09;2619604;28;19943;-85
2023/07/16 00:04:38;;;;;;;;;;;;;;;23.81;54.47;97632.53;2619116;28;19924;-85
2023/07/16 00:05:53;;;;;;;;;;;;;;;23.91;54.06;97637.00;2619138;28;20002;-86
2023/07/16 00:07:10;;;;;;;;;;;;;;;23.88;54.67;97639.94;2619053;28;19935;-85
2023/07/16 00:08:25;;;;;;;;;;;;;;;23.82;54.87;97641.41;2619364;28;19928;-85
2023/07/16 00:09:41;;;;;;;;;;;;;;;23.77;54.67;97639.19;2619667;28;19929;-85
2023/07/16 00:10:56;;;;;;;;;;;;;;;23.76;54.47;97650.84;2619052;28;19943;-85
2023/07/16 00:12:11;;;;;;;;;;;;;;;23.79;54.97;97644.34;2619478;28;20391;-86
2023/07/16 00:13:27;;;;;;;;;;;;;;;23.69;55.92;97639.91;2618845;28;19928;-86
2023/07/16 00:14:42;;;;;;;;;;;;;;;23.71;55.13;97653.09;2619411;28;19924;-86
2023/07/16 00:15:58;;;;;;;;;;;;;;;23.65;55.91;97643.03;2619095;28;19986;-86
2023/07/16 00:17:13;;;;;;;;;;;;;;;23.68;54.99;97642.72;2619416;28;20015;-85
2023/07/16 00:18:29;;;;;;;;;;;;;;;23.64;55.00;97650.19;2618958;28;19929;-86
2023/07/16 00:19:44;;;;;;;;;;;;;;;23.23;56.32;97652.22;2619345;28;19929;-86
2023/07/16 00:20:59;;;;;;;;;;;;;;;23.20;57.74;97642.69;2618859;28;19972;-86
2023/07/16 00:22:15;;;;;;;;;;;;;;;23.23;56.81;97642.38;2619362;28;19971;-86
2023/07/16 00:23:30;;;;;;;;;;;;;;;23.17;58.46;97637.59;2619128;28;19924;-86
2023/07/16 00:24:45;;;;;;;;;;;;;;;23.16;57.90;97643.09;2619271;28;19932;-86
2023/07/16 00:26:01;;;;;;;;;;;;;;;23.07;58.49;97648.31;2617886;28;19942;-86
2023/07/16 00:27:16;;;;;;;;;;;;;;;23.05;58.12;97646.75;2618822;28;19928;-85
2023/07/16 00:28:32;;;;;;;;;;;;;;;23.06;58.42;97641.28;2618004;28;20628;-86
2023/07/16 00:29:47;;;;;;;;;;;;;;;22.88;59.43;97648.31;2619191;28;19932;-85
2023/07/16 00:31:02;;;;;;;;;;;;;;;22.91;59.05;97658.72;2619082;28;19935;-85
2023/07/16 00:32:18;;;;;;;;;;;;;;;22.96;58.60;97675.13;2619366;28;19972;-85
2023/07/16 00:33:33;;;;;;;;;;;;;;;22.90;58.00;97724.59;2619221;28;19928;-86
2023/07/16 00:34:49;;;;;;;;;;;;;;;22.47;61.64;97800.41;2619371;28;19929;-86
2023/07/16 00:36:04;;;;;;;;;;;;;;;21.99;64.66;97838.22;2619223;28;20372;-86
2023/07/16 00:37:20;;;;;;;;;;;;;;;22.14;63.62;97836.06;2619084;28;20018;-85
2023/07/16 00:38:35;;;;;;;;;;;;;;;22.71;60.95;97834.81;2618390;28;19928;-85
2023/07/16 00:39:51;;;;;;;;;;;;;;;23.03;59.92;97822.25;2619096;28;20391;-85
2023/07/16 00:41:06;;;;;;;;;;;;;;;23.24;58.60;97782.94;2619168;28;19939;-85
2023/07/16 00:42:22;;;;;;;;;;;;;;;23.43;57.32;97725.16;2618988;28;19932;-84
2023/07/16 00:43:37;;;;;;;;;;;;;;;23.55;57.24;97721.34;2618851;28;19928;-84
2023/07/16 00:44:52;;;;;;;;;;;;;;;23.40;57.64;97765.53;2619210;28;20391;-85
2023/07/16 00:46:08;;;;;;;;;;;;;;;23.00;59.72;97832.22;2619142;28;19932;-86
2023/07/16 00:47:24;;;;;;;;;;;;;;;23.25;59.04;97835.34;2619006;28;20454;-85
2023/07/16 00:48:40;;;;;;;;;;;;;;;23.04;59.71;97818.59;2619322;28;19951;-86
2023/07/16 00:49:55;;;;;;;;;;;;;;;23.21;59.42;97820.59;2618714;28;20031;-87
2023/07/16 00:51:11;;;;;;;;;;;;;;;23.55;57.74;97800.69;2618817;28;19940;-86
2023/07/16 00:52:28;;;;;;;;;;;;;;;23.66;56.81;97770.28;2618706;28;19935;-84
2023/07/16 00:53:44;;;;;;;;;;;;;;;23.74;56.16;97751.69;2618741;28;19924;-84
2023/07/16 00:55:00;;;;;;;;;;;;;;;23.77;56.58;97762.13;2618629;28;20027;-85
2023/07/16 00:56:16;;;;;;;;;;;;;;;23.69;56.58;97796.72;2619071;28;20212;-85
2023/07/16 00:57:32;;;;;;;;;;;;;;;23.24;59.05;97819.47;2618519;28;20161;-85
2023/07/16 00:58:48;;;;;;;;;;;;;;;23.14;59.53;97819.47;2619276;28;19938;-85
2023/07/16 01:00:03;;;;;;;;;;;;;;;23.49;58.27;97822.59;2619097;28;19932;-85
2023/07/16 01:01:19;;;;;;;;;;;;;;;23.57;57.83;97814.75;2620717;28;19993;-85
2023/07/16 01:02:34;;;;;;;;;;;;;;;23.73;56.25;97802.63;2620958;28;19928;-84
2023/07/16 01:03:50;;;;;;;;;;;;;;;23.78;56.38;97795.03;2621054;28;19928;-84
2023/07/16 01:05:06;;;;;;;;;;;;;;;23.63;57.22;97799.97;2620235;28;19939;-84
2023/07/16 01:06:35;;;;;;;;;;;;;;;23.70;56.17;97799.25;2621038;28;19936;-84
2023/07/16 01:08:01;;;;;;;;;;;;;;;23.62;57.17;97811.66;2620497;28;20476;-84
2023/07/16 01:09:18;;;;;;;;;;;;;;;23.60;56.62;97808.25;2620719;28;19975;-84
2023/07/16 01:10:34;;;;;;;;;;;;;;;23.54;57.20;97793.66;2620778;28;19928;-84
2023/07/16 01:11:49;;;;;;;;;;;;;;;23.35;58.31;97789.16;2620644;28;20379;-84
2023/07/16 01:13:05;;;;;;;;;;;;;;;23.35;57.93;97800.66;2620951;28;19935;-84
2023/07/16 01:14:21;;;;;;;;;;;;;;;23.36;58.73;97806.88;2620706;28;20019;-85
2023/07/16 01:15:36;;;;;;;;;;;;;;;23.32;58.39;97808.97;2620352;28;19967;-85
2023/07/16 01:16:58;;;;;;;;;;;;;;;23.35;58.40;97808.69;2620714;28;19939;-84
2023/07/16 01:18:14;;;;;;;;;;;;;;;23.09;60.14;97798.50;2620539;28;20289;-84
2023/07/16 01:19:29;;;;;;;;;;;;;;;23.04;60.53;97797.22;2621008;28;19935;-84
2023/07/16 01:20:44;;;;;;;;;;;;;;;23.05;60.29;97793.56;2620830;28;19997;-84
2023/07/16 01:22:06;;;;;;;;;;;;;;;22.97;60.47;97799.59;2620947;28;19928;-84
2023/07/16 01:23:39;;;;;;;;;;;;;;;22.80;60.62;97795.81;2620435;28;20290;-84
2023/07/16 01:25:17;;;;;;;;;;;;;;;22.85;61.15;97789.06;2620763;28;19928;-85
2023/07/16 01:26:39;;;;;;;;;;;;;;;22.78;61.40;97784.44;2620295;28;19981;-84
2023/07/16 01:28:10;;;;;;;;;;;;;;;22.84;61.37;97771.38;2620714;28;20578;-84
2023/07/16 01:29:25;;;;;;;;;;;;;;;23.00;60.18;97775.34;2621006;28;20494;-84
2023/07/16 01:30:43;;;;;;;;;;;;;;;23.11;61.16;97772.50;2620604;28;19932;-84
2023/07/16 01:32:00;;;;;;;;;;;;;;;23.22;60.32;97779.56;2620599;28;19956;-85
2023/07/16 01:33:16;;;;;;;;;;;;;;;23.44;58.96;97771.44;2620204;28;19928;-84
2023/07/16 01:34:33;;;;;;;;;;;;;;;23.73;58.19;97783.94;2620886;28;20295;-85
2023/07/16 01:35:50;;;;;;;;;;;;;;;23.90;57.01;97799.22;2620150;28;19928;-85
2023/07/16 01:37:06;;;;;;;;;;;;;;;24.09;56.04;97793.03;2620413;28;19990;-85
2023/07/16 01:38:23;;;;;;;;;;;;;;;23.94;57.05;97807.81;2620162;28;19932;-85
2023/07/16 01:39:39;;;;;;;;;;;;;;;24.01;56.19;97803.56;2620379;28;20862;-85
2023/07/16 01:40:54;;;;;;;;;;;;;;;24.05;55.52;97818.38;2620536;28;20020;-85
2023/07/16 01:42:10;;;;;;;;;;;;;;;23.95;56.09;97825.53;2620387;28;19931;-85
2023/07/16 01:43:25;;;;;;;;;;;;;;;23.97;56.07;97826.22;2620988;28;19924;-84
2023/07/16 01:44:40;;;;;;;;;;;;;;;23.97;56.37;97828.91;2620144;28;20223;-85
2023/07/16 01:45:56;;;;;;;;;;;;;;;23.92;56.10;97823.97;2620299;28;20510;-84
2023/07/16 01:47:14;;;;;;;;;;;;;;;23.83;56.54;97823.00;2620364;28;19932;-84
2023/07/16 01:48:31;;;;;;;;;;;;;;;23.74;57.45;97818.50;2620498;28;19978;-84
2023/07/16 01:49:46;;;;;;;;;;;;;;;23.59;58.08;97819.94;2620609;28;20019;-84
2023/07/16 01:51:02;;;;;;;;;;;;;;;23.52;58.05;97825.84;2620173;28;20116;-84
2023/07/16 01:52:18;;;;;;;;;;;;;;;23.40;58.81;97825.16;2619647;28;19939;-84
2023/07/16 01:53:33;;;;;;;;;;;;;;;23.28;59.62;97835.09;2620152;28;20424;-85
2023/07/16 01:54:48;;;;;;;;;;;;;;;23.41;58.82;97842.00;2619296;28;19948;-84
2023/07/16 01:56:04;;;;;;;;;;;;;;;23.34;60.45;97856.91;2619958;28;19924;-84
2023/07/16 01:57:19;;;;;;;;;;;;;;;23.04;62.09;97867.50;2620360;28;19989;-84
2023/07/16 01:58:35;;;;;;;;;;;;;;;23.20;61.33;97888.34;2620980;28;19939;-84
2023/07/16 01:59:50;;;;;;;;;;;;;;;23.37;60.24;97888.69;2620230;28;19950;-84
2023/07/16 02:01:06;;;;;;;;;;;;;;;23.44;59.50;97892.47;2620343;28;19925;-85
2023/07/16 02:02:21;;;;;;;;;;;;;;;23.51;59.56;97890.97;2620432;28;19931;-84
2023/07/16 02:03:36;;;;;;;;;;;;;;;23.47;58.79;97897.56;2620407;28;19928;-84
2023/07/16 02:04:52;;;;;;;;;;;;;;;23.52;59.35;97902.47;2619898;28;19932;-85
2023/07/16 02:06:07;;;;;;;;;;;;;;;23.69;58.70;97904.47;2620566;28;19943;-85
2023/07/16 02:07:24;;;;;;;;;;;;;;;23.70;58.67;97907.97;2619960;28;19928;-85
2023/07/16 02:08:39;;;;;;;;;;;;;;;23.48;59.56;97917.97;2620186;28;19924;-85
2023/07/16 02:09:55;;;;;;;;;;;;;;;23.47;60.19;97921.63;2620354;28;19929;-85
2023/07/16 02:11:10;;;;;;;;;;;;;;;23.51;60.54;97915.00;2620131;28;19940;-85
2023/07/16 02:12:25;;;;;;;;;;;;;;;23.72;59.69;97918.53;2620021;28;20027;-85
2023/07/16 02:13:41;;;;;;;;;;;;;;;23.76;59.37;97912.78;2620181;28;19928;-84
2023/07/16 02:14:56;;;;;;;;;;;;;;;23.65;59.27;97910.25;2619871;28;19924;-85
2023/07/16 02:16:12;;;;;;;;;;;;;;;23.51;61.14;97922.16;2620352;28;19939;-87
2023/07/16 02:17:27;;;;;;;;;;;;;;;23.67;60.81;97917.09;2620671;28;19924;-85
2023/07/16 02:18:43;;;;;;;;;;;;;;;23.72;60.43;97927.38;2620344;28;19928;-85
2023/07/16 02:19:58;;;;;;;;;;;;;;;23.78;60.84;97934.88;2620383;28;19925;-85
2023/07/16 02:21:13;;;;;;;;;;;;;;;23.93;60.64;97942.47;2620313;28;19928;-84
2023/07/16 02:22:29;;;;;;;;;;;;;;;24.04;60.02;97950.38;2620314;28;19929;-85
2023/07/16 02:23:44;;;;;;;;;;;;;;;24.06;60.81;97959.09;2620085;28;19936;-85
2023/07/16 02:25:00;;;;;;;;;;;;;;;24.24;59.75;97961.91;2620319;28;19928;-84
2023/07/16 02:26:15;;;;;;;;;;;;;;;24.39;59.14;97961.47;2620027;28;19929;-85
2023/07/16 02:27:31;;;;;;;;;;;;;;;24.44;58.71;97955.69;2620586;28;19935;-84
2023/07/16 02:28:46;;;;;;;;;;;;;;;24.38;58.87;97963.28;2620043;28;20198;-85
2023/07/16 02:30:02;;;;;;;;;;;;;;;24.39;58.82;97964.16;2619990;28;19955;-84
2023/07/16 02:31:17;;;;;;;;;;;;;;;24.41;58.92;97967.53;2619885;28;19929;-85
2023/07/16 02:32:33;;;;;;;;;;;;;;;24.44;58.67;97966.38;2619700;28;19932;-85
2023/07/16 02:33:49;;;;;;;;;;;;;;;24.42;58.15;97968.34;2620049;28;19928;-85
2023/07/16 02:35:04;;;;;;;;;;;;;;;24.36;58.59;97969.75;2619841;28;20796;-85
2023/07/16 02:36:19;;;;;;;;;;;;;;;24.27;59.62;97974.16;2619845;28;19931;-85
2023/07/16 02:37:35;;;;;;;;;;;;;;;24.19;60.19;97984.72;2620162;28;19951;-85
2023/07/16 02:38:51;;;;;;;;;;;;;;;24.06;60.48;97983.19;2619967;28;19929;-85
2023/07/16 02:40:06;;;;;;;;;;;;;;;23.87;60.83;97988.47;2620378;28;19956;-85
2023/07/16 02:41:22;;;;;;;;;;;;;;;23.96;59.30;97977.78;2619909;28;20928;-84
2023/07/16 02:42:37;;;;;;;;;;;;;;;23.81;61.30;97979.16;2620584;28;19928;-84
2023/07/16 02:43:59;;;;;;;;;;;;;;;23.71;62.03;97979.16;2619770;28;19972;-85
2023/07/16 02:45:15;;;;;;;;;;;;;;;23.74;61.90;97975.38;2620378;28;19975;-85
2023/07/16 02:46:30;;;;;;;;;;;;;;;23.68;62.65;97972.28;2620063;28;19974;-84
2023/07/16 02:47:46;;;;;;;;;;;;;;;23.82;62.32;97952.31;2619771;28;19964;-84
2023/07/16 02:49:02;;;;;;;;;;;;;;;23.70;62.96;97964.97;2619834;28;20027;-84
2023/07/16 02:50:18;;;;;;;;;;;;;;;23.61;63.57;97964.91;2620578;28;20387;-85
2023/07/16 02:51:33;;;;;;;;;;;;;;;23.84;63.51;97966.38;2620371;28;19925;-85
2023/07/16 02:52:48;;;;;;;;;;;;;;;23.97;63.27;97973.28;2620379;28;20396;-84
2023/07/16 02:54:04;;;;;;;;;;;;;;;24.01;62.91;97976.53;2620118;28;19928;-85
2023/07/16 02:55:19;;;;;;;;;;;;;;;24.10;62.79;97975.72;2620024;28;19935;-84
2023/07/16 02:56:35;;;;;;;;;;;;;;;24.24;61.97;97982.47;2619991;28;20009;-84
2023/07/16 02:57:50;;;;;;;;;;;;;;;24.27;61.83;97995.53;2620371;28;19936;-84
2023/07/16 02:59:05;;;;;;;;;;;;;;;24.29;62.04;98012.28;2620057;28;19928;-84
2023/07/16 03:00:21;;;;;;;;;;;;;;;24.10;62.50;98030.03;2620359;28;20023;-84
2023/07/16 03:01:36;;;;;;;;;;;;;;;23.87;63.28;98050.81;2620320;28;19929;-84
2023/07/16 03:02:52;;;;;;;;;;;;;;;23.68;64.11;98063.13;2620172;28;19928;-84
2023/07/16 03:04:07;;;;;;;;;;;;;;;23.55;65.11;98071.38;2620135;28;19928;-84
2023/07/16 03:05:22;;;;;;;;;;;;;;;23.52;65.53;98078.81;2620411;28;19987;-84
2023/07/16 03:06:38;;;;;;;;;;;;;;;23.58;65.58;98083.63;2619699;28;19929;-84
2023/07/16 03:07:53;;;;;;;;;;;;;;;23.74;65.28;98088.44;2619485;28;20386;-84
2023/07/16 03:09:09;;;;;;;;;;;;;;;23.87;64.54;98090.03;2620080;28;19940;-84
2023/07/16 03:10:26;;;;;;;;;;;;;;;23.86;65.46;98099.91;2620134;28;19935;-84
2023/07/16 03:11:41;;;;;;;;;;;;;;;23.81;65.53;98094.09;2620104;28;19928;-84
2023/07/16 03:12:57;;;;;;;;;;;;;;;23.89;65.26;98096.13;2620219;28;19928;-83
2023/07/16 03:14:12;;;;;;;;;;;;;;;23.86;64.65;98099.91;2619745;28;19958;-84
2023/07/16 03:15:28;;;;;;;;;;;;;;;23.65;66.06;98099.97;2619913;28;19928;-84
2023/07/16 03:16:43;;;;;;;;;;;;;;;23.73;66.52;98108.16;2620045;28;20410;-84
2023/07/16 03:17:59;;;;;;;;;;;;;;;23.77;65.37;98106.06;2619026;28;19973;-83
2023/07/16 03:19:14;;;;;;;;;;;;;;;23.72;66.52;98102.94;2618741;28;19931;-83
2023/07/16 03:20:29;;;;;;;;;;;;;;;23.75;64.62;98098.19;2618699;28;20199;-83
2023/07/16 03:21:45;;;;;;;;;;;;;;;23.77;65.95;98098.91;2619500;28;20414;-83
2023/07/16 03:23:01;;;;;;;;;;;;;;;23.66;66.39;98099.00;2619549;28;19964;-83
2023/07/16 03:24:16;;;;;;;;;;;;;;;23.64;66.46;98092.94;2619145;28;19932;-83
2023/07/16 03:25:32;;;;;;;;;;;;;;;23.73;68.46;98099.28;2619943;28;19936;-83
2023/07/16 03:26:47;;;;;;;;;;;;;;;23.55;69.15;98095.44;2620051;28;19986;-83
2023/07/16 03:28:03;;;;;;;;;;;;;;;23.71;68.72;98091.41;2619601;28;19929;-83
2023/07/16 03:29:18;;;;;;;;;;;;;;;23.78;68.05;98089.03;2620145;28;19925;-84
2023/07/16 03:30:33;;;;;;;;;;;;;;;23.83;67.75;98087.66;2620047;28;19932;-84
2023/07/16 03:31:49;;;;;;;;;;;;;;;24.01;67.07;98084.31;2619531;28;20922;-84
2023/07/16 03:33:04;;;;;;;;;;;;;;;23.95;66.94;98090.22;2619513;28;20240;-86
2023/07/16 03:34:20;;;;;;;;;;;;;;;24.19;65.37;98097.06;2619529;28;19928;-83
2023/07/16 03:35:35;;;;;;;;;;;;;;;24.16;65.23;98091.97;2619705;28;19986;-84
2023/07/16 03:36:51;;;;;;;;;;;;;;;24.22;65.01;98097.59;2619756;28;20009;-84
2023/07/16 03:38:06;;;;;;;;;;;;;;;24.16;65.26;98108.00;2619997;28;19928;-85
2023/07/16 03:39:21;;;;;;;;;;;;;;;24.16;65.32;98113.34;2619449;28;19977;-86
2023/07/16 03:40:37;;;;;;;;;;;;;;;24.10;65.66;98120.13;2619932;28;20399;-84
2023/07/16 03:41:52;;;;;;;;;;;;;;;24.02;66.69;98134.13;2619675;28;20588;-84
2023/07/16 03:43:07;;;;;;;;;;;;;;;23.95;67.14;98139.16;2619801;28;19928;-84
2023/07/16 03:44:23;;;;;;;;;;;;;;;24.04;66.76;98145.59;2619484;28;19935;-85
2023/07/16 03:45:38;;;;;;;;;;;;;;;24.08;66.74;98147.00;2619297;28;19966;-84
2023/07/16 03:46:54;;;;;;;;;;;;;;;23.98;67.70;98149.63;2619046;28;20374;-85
2023/07/16 03:48:09;;;;;;;;;;;;;;;24.01;67.72;98155.66;2619887;28;20372;-86
2023/07/16 03:49:24;;;;;;;;;;;;;;;24.10;67.65;98149.56;2619781;28;19932;-86
2023/07/16 03:50:40;;;;;;;;;;;;;;;23.98;70.92;98144.28;2619763;28;20390;-84
2023/07/16 03:51:55;;;;;;;;;;;;;;;23.94;74.62;98137.47;2619434;28;19929;-86
2023/07/16 03:53:11;;;;;;;;;;;;;;;23.72;79.88;98133.19;2619749;28;19924;-84
2023/07/16 03:54:26;;;;;;;;;;;;;;;23.62;88.28;98143.84;2619393;28;20391;-85
2023/07/16 03:55:41;;;;;;;;;;;;;;;23.08;97.23;98159.09;2619805;28;19925;-87
2023/07/16 03:56:57;;;;;;;;;;;;;;;23.06;98.57;98163.72;2619206;28;19924;-87
2023/07/16 03:58:12;;;;;;;;;;;;;;;22.93;100.00;98177.25;2619729;28;19928;-86
2023/07/16 03:59:27;;;;;;;;;;;;;;;22.74;100.00;98175.25;2619551;28;19971;-86
2023/07/16 04:00:44;;;;;;;;;;;;;;;22.77;100.00;98177.66;2619466;28;19947;-85
2023/07/16 04:01:59;;;;;;;;;;;;;;;22.90;100.00;98183.69;2618043;28;19955;-85
2023/07/16 04:03:15;;;;;;;;;;;;;;;22.91;100.00;98188.06;2619729;28;19929;-85
2023/07/16 04:04:30;;;;;;;;;;;;;;;22.78;100.00;98195.41;2619150;28;19963;-85
2023/07/16 04:05:45;;;;;;;;;;;;;;;22.82;100.00;98188.81;2618626;28;19948;-85
2023/07/16 04:07:01;;;;;;;;;;;;;;;22.83;100.00;98190.53;2619049;28;19975;-85
2023/07/16 04:08:16;;;;;;;;;;;;;;;22.66;100.00;98194.56;2618863;28;19928;-85
2023/07/16 04:09:32;;;;;;;;;;;;;;;22.57;100.00;98194.38;2619265;28;20033;-86
2023/07/16 04:10:47;;;;;;;;;;;;;;;22.60;100.00;98195.91;2619034;28;19928;-87
2023/07/16 04:12:02;;;;;;;;;;;;;;;22.62;100.00;98188.63;2617920;28;20528;-87
2023/07/16 04:13:18;;;;;;;;;;;;;;;22.73;100.00;98189.59;2618983;28;19928;-87
2023/07/16 04:14:33;;;;;;;;;;;;;;;22.73;100.00;98189.59;2619077;28;19928;-87
2023/07/16 04:15:49;;;;;;;;;;;;;;;22.77;100.00;98183.00;2618794;28;19928;-86
2023/07/16 04:17:04;;;;;;;;;;;;;;;22.67;100.00;98181.13;2618902;28;20010;-86
2023/07/16 04:18:21;;;;;;;;;;;;;;;22.66;100.00;98195.44;2619024;28;19928;-86
2023/07/16 04:19:37;;;;;;;;;;;;;;;22.47;100.00;98208.53;2618989;28;20300;-86
2023/07/16 04:20:53;;;;;;;;;;;;;;;22.57;100.00;98209.53;2617917;28;19954;-86
2023/07/16 04:22:08;;;;;;;;;;;;;;;22.54;100.00;98212.44;2618501;28;19928;-87
2023/07/16 04:23:24;;;;;;;;;;;;;;;22.64;100.00;98217.88;2619171;28;19928;-86
2023/07/16 04:24:40;;;;;;;;;;;;;;;22.72;100.00;98218.09;2619393;28;20372;-86
2023/07/16 04:25:55;;;;;;;;;;;;;;;22.62;100.00;98223.31;2619233;28;19930;-86
2023/07/16 04:27:11;;;;;;;;;;;;;;;22.52;100.00;98227.72;2619697;28;19931;-86
2023/07/16 04:28:26;;;;;;;;;;;;;;;22.67;100.00;98230.94;2619567;28;19924;-86
2023/07/16 04:29:41;;;;;;;;;;;;;;;22.44;100.00;98225.66;2619539;28;19947;-87
2023/07/16 04:30:57;;;;;;;;;;;;;;;22.34;100.00;98217.53;2618902;28;19924;-86
2023/07/16 04:32:12;;;;;;;;;;;;;;;22.23;100.00;98222.91;2619546;28;20244;-86
2023/07/16 04:33:27;;;;;;;;;;;;;;;22.01;100.00;98230.78;2619263;28;19928;-87
2023/07/16 04:34:43;;;;;;;;;;;;;;;22.05;100.00;98231.38;2619134;28;19970;-87
2023/07/16 04:35:58;;;;;;;;;;;;;;;21.95;100.00;98231.25;2618699;28;19932;-86
2023/07/16 04:37:14;;;;;;;;;;;;;;;21.62;100.00;98232.88;2619636;28;19928;-88
2023/07/16 04:38:29;;;;;;;;;;;;;;;21.70;100.00;98230.50;2619367;28;20335;-87
2023/07/16 04:39:44;;;;;;;;;;;;;;;21.58;100.00;98228.75;2619570;28;19929;-88
2023/07/16 04:41:00;;;;;;;;;;;;;;;21.48;100.00;98231.28;2619188;28;20434;-87
2023/07/16 04:42:16;;;;;;;;;;;;;;;21.53;100.00;98233.59;2619617;28;19932;-86
2023/07/16 04:43:31;;;;;;;;;;;;;;;21.65;100.00;98226.44;2618761;28;19929;-86
2023/07/16 04:44:47;;;;;;;;;;;;;;;21.81;100.00;98215.50;2619321;28;20276;-86
2023/07/16 04:46:03;;;;;;;;;;;;;;;21.85;100.00;98207.13;2619116;28;19928;-85
2023/07/16 04:47:18;;;;;;;;;;;;;;;21.64;100.00;98222.94;2619895;28;19925;-86
2023/07/16 04:48:33;;;;;;;;;;;;;;;21.53;100.00;98221.13;2618888;28;19951;-86
2023/07/16 04:49:49;;;;;;;;;;;;;;;21.50;100.00;98229.34;2619236;28;19924;-86
2023/07/16 04:51:04;;;;;;;;;;;;;;;21.52;100.00;98224.75;2619058;28;20004;-86
2023/07/16 04:52:20;;;;;;;;;;;;;;;21.42;100.00;98223.75;2619538;28;20015;-86
2023/07/16 04:53:35;;;;;;;;;;;;;;;21.50;100.00;98218.69;2618925;28;19925;-86
2023/07/16 04:54:50;;;;;;;;;;;;;;;21.49;100.00;98203.66;2619133;28;20375;-86
2023/07/16 04:56:12;;;;;;;;;;;;;;;21.53;100.00;98194.50;2618185;28;20379;-86
2023/07/16 04:57:27;;;;;;;;;;;;;;;21.56;100.00;98188.91;2619368;28;19929;-86
2023/07/16 04:58:43;;;;;;;;;;;;;;;21.53;100.00;98191.84;2619493;28;19967;-86
2023/07/16 04:59:58;;;;;;;;;;;;;;;21.68;100.00;98213.78;2619118;28;19924;-86
2023/07/16 05:01:13;;;;;;;;;;;;;;;21.73;100.00;98226.75;2619279;28;19950;-85
2023/07/16 05:02:29;;;;;;;;;;;;;;;21.71;100.00;98231.34;2619354;28;19928;-85
2023/07/16 05:03:44;;;;;;;;;;;;;;;21.74;100.00;98231.09;2618293;28;19928;-85
2023/07/16 05:05:00;;;;;;;;;;;;;;;21.85;100.00;98222.28;2617900;28;19977;-85
2023/07/16 05:06:15;;;;;;;;;;;;;;;21.90;100.00;98224.56;2619369;28;20395;-85
2023/07/16 05:07:31;;;;;;;;;;;;;;;21.91;100.00;98224.47;2618511;28;20014;-85
2023/07/16 05:08:46;;;;;;;;;;;;;;;21.90;100.00;98227.25;2617742;28;19929;-85
2023/07/16 05:10:01;;;;;;;;;;;;;;;21.95;100.00;98228.56;2618183;28;19929;-85
2023/07/16 05:11:17;;;;;;;;;;;;;;;21.93;100.00;98219.00;2617873;28;19935;-85
2023/07/16 05:12:32;;;;;;;;;;;;;;;21.78;100.00;98227.22;2618880;28;20376;-85
2023/07/16 05:13:47;;;;;;;;;;;;;;;21.81;100.00;98242.13;2618548;28;19925;-85
2023/07/16 05:15:03;;;;;;;;;;;;;;;21.60;100.00;98245.47;2618401;28;20322;-85
2023/07/16 05:16:19;;;;;;;;;;;;;;;21.59;100.00;98249.94;2619039;28;19929;-87
2023/07/16 05:17:34;;;;;;;;;;;;;;;21.75;100.00;98243.47;2619331;28;19971;-85
2023/07/16 05:18:49;;;;;;;;;;;;;;;21.90;100.00;98235.25;2618354;28;19929;-86
2023/07/16 05:20:05;;;;;;;;;;;;;;;21.77;100.00;98233.53;2618308;28;20272;-86
2023/07/16 05:21:21;;;;;;;;;;;;;;;21.73;100.00;98229.41;2619384;28;19928;-83
2023/07/16 05:22:36;;;;;;;;;;;;;;;21.61;100.00;98228.53;2618311;28;19929;-85
2023/07/16 05:23:52;;;;;;;;;;;;;;;21.61;100.00;98214.34;2618251;28;19936;-86
2023/07/16 05:25:08;;;;;;;;;;;;;;;21.44;100.00;98204.03;2617800;28;20916;-84
2023/07/16 05:26:23;;;;;;;;;;;;;;;21.65;100.00;98207.81;2618592;28;20410;-83
2023/07/16 05:27:38;;;;;;;;;;;;;;;21.73;100.00;98216.09;2618536;28;19932;-84
2023/07/16 05:28:54;;;;;;;;;;;;;;;21.71;100.00;98210.03;2618297;28;19929;-84
2023/07/16 05:30:09;;;;;;;;;;;;;;;21.65;100.00;98215.78;2619038;28;20406;-84
2023/07/16 05:31:25;;;;;;;;;;;;;;;21.66;100.00;98215.72;2618179;28;19974;-84
2023/07/16 05:32:40;;;;;;;;;;;;;;;21.75;100.00;98211.47;2617106;28;20205;-84
2023/07/16 05:33:56;;;;;;;;;;;;;;;21.82;100.00;98207.38;2618450;28;19939;-84
2023/07/16 05:35:11;;;;;;;;;;;;;;;21.79;100.00;98214.75;2617844;28;19935;-85
2023/07/16 05:36:26;;;;;;;;;;;;;;;21.95;100.00;98219.75;2618506;28;20302;-84
2023/07/16 05:37:42;;;;;;;;;;;;;;;21.94;100.00;98226.88;2619148;28;19982;-84
2023/07/16 05:38:57;;;;;;;;;;;;;;;22.00;100.00;98225.56;2618961;28;19934;-84
2023/07/16 05:40:13;;;;;;;;;;;;;;;22.05;100.00;98207.38;2618831;28;19932;-84
2023/07/16 05:41:28;;;;;;;;;;;;;;;22.14;100.00;98195.13;2619211;28;19936;-84
2023/07/16 05:42:43;;;;;;;;;;;;;;;22.07;100.00;98194.78;2619271;28;19924;-84
2023/07/16 05:43:59;;;;;;;;;;;;;;;21.94;100.00;98199.41;2617844;28;19939;-84
2023/07/16 05:45:14;;;;;;;;;;;;;;;21.98;100.00;98192.84;2618953;28;20326;-84
2023/07/16 05:46:30;;;;;;;;;;;;;;;21.90;100.00;98185.47;2618614;28;19928;-84
2023/07/16 05:47:45;;;;;;;;;;;;;;;21.67;100.00;98182.78;2619549;28;19935;-84
2023/07/16 05:49:00;;;;;;;;;;;;;;;21.86;100.00;98198.19;2620458;28;19931;-84
2023/07/16 05:50:16;;;;;;;;;;;;;;;21.98;100.00;98207.00;2620474;28;19978;-84
2023/07/16 05:51:31;;;;;;;;;;;;;;;22.07;100.00;98223.25;2620449;28;19966;-84
2023/07/16 05:52:48;;;;;;;;;;;;;;;22.01;100.00;98233.44;2620893;28;20005;-84
2023/07/16 05:54:04;;;;;;;;;;;;;;;22.01;100.00;98235.25;2620578;28;19932;-83
2023/07/16 05:55:19;;;;;;;;;;;;;;;21.93;100.00;98243.00;2620908;28;19935;-83
2023/07/16 05:56:34;;;;;;;;;;;;;;;21.94;100.00;98242.03;2620572;28;19928;-83
2023/07/16 05:57:50;;;;;;;;;;;;;;;21.97;100.00;98255.13;2621001;28;19928;-84
2023/07/16 05:59:05;;;;;;;;;;;;;;;22.00;100.00;98257.53;2620442;28;19928;-84
2023/07/16 06:00:21;;;;;;;;;;;;;;;21.96;100.00;98258.75;2620701;28;19925;-84
2023/07/16 06:01:36;;;;;;;;;;;;;;;21.95;100.00;98251.75;2620774;28;19924;-84
2023/07/16 06:02:52;;;;;;;;;;;;;;;21.90;100.00;98243.22;2620733;28;19985;-83
2023/07/16 06:04:07;;;;;;;;;;;;;;;21.97;100.00;98231.97;2620722;28;19975;-85
2023/07/16 06:05:24;;;;;;;;;;;;;;;21.99;100.00;98230.03;2620887;28;19928;-83
2023/07/16 06:06:40;;;;;;;;;;;;;;;21.96;100.00;98226.78;2619934;28;20043;-83
2023/07/16 06:07:55;;;;;;;;;;;;;;;22.15;100.00;98219.00;2620519;28;19928;-84
2023/07/16 06:09:10;;;;;;;;;;;;;;;22.05;100.00;98223.38;2620763;28;20299;-84
2023/07/16 06:10:26;;;;;;;;;;;;;;;22.29;100.00;98227.72;2620678;28;19928;-83
2023/07/16 06:11:41;;;;;;;;;;;;;;;22.44;100.00;98229.16;2620435;28;19974;-84
2023/07/16 06:12:56;;;;;;;;;;;;;;;22.30;100.00;98216.09;2620205;28;19978;-84
2023/07/16 06:14:12;;;;;;;;;;;;;;;22.50;100.00;98209.16;2620189;28;19929;-83
2023/07/16 06:15:27;;;;;;;;;;;;;;;22.54;100.00;98213.28;2620751;28;19978;-84
2023/07/16 06:16:43;;;;;;;;;;;;;;;22.46;100.00;98205.03;2620747;28;19982;-84
2023/07/16 06:17:58;;;;;;;;;;;;;;;22.51;100.00;98202.88;2620419;28;19925;-82
2023/07/16 06:19:14;;;;;;;;;;;;;;;22.55;100.00;98208.81;2620876;28;19932;-81
2023/07/16 06:20:29;;;;;;;;;;;;;;;22.41;100.00;98204.53;2620239;28;19931;-82
2023/07/16 06:21:45;;;;;;;;;;;;;;;22.51;100.00;98223.38;2620404;28;20400;-85
2023/07/16 06:23:00;;;;;;;;;;;;;;;22.49;100.00;98226.16;2619912;28;20755;-82
2023/07/16 06:24:16;;;;;;;;;;;;;;;22.44;100.00;98223.81;2620646;28;19958;-82
2023/07/16 06:25:31;;;;;;;;;;;;;;;22.43;100.00;98229.28;2620767;28;19928;-82
2023/07/16 06:26:47;;;;;;;;;;;;;;;22.41;100.00;98239.22;2619558;28;19970;-82
2023/07/16 06:28:03;;;;;;;;;;;;;;;22.43;100.00;98259.47;2619228;28;20418;-81
2023/07/16 06:29:19;;;;;;;;;;;;;;;21.92;100.00;98276.81;2620779;28;19928;-82
2023/07/16 06:30:34;;;;;;;;;;;;;;;22.03;100.00;98283.94;2619741;28;19924;-82
2023/07/16 06:31:56;;;;;;;;;;;;;;;21.93;100.00;98281.16;2619902;28;19931;-83
2023/07/16 06:33:12;;;;;;;;;;;;;;;22.32;100.00;98283.47;2620289;28;19960;-81